WMKJ/JHB METAR and TAF weather

Enter ICAO airport designator
Station Type Date Time Source
WMKJ METAR 2020/09/23 00:00 UTC NOAA

WMKJ 230000Z 00000KT 9999 FEW010 25/24 Q1010


Station Type Date Time Source
WMKJ Decoded METAR 2020/09/23 00:00 UTC NOAA

Johore Bharu / Senai, Malaysia (WMKJ) 01-38N 103-40E 40M
Sep 22, 2020 - 08:00 PM EDT / 2020.09.23 0000 UTC
Wind: Calm:0
Visibility: greater than 7 mile(s):0
Sky conditions: mostly clear
Temperature: 77 F (25 C)
Dew Point: 75 F (24 C)
Relative Humidity: 94%
Pressure (altimeter): 29.83 in. Hg (1010 hPa)
ob: WMKJ 230000Z 00000KT 9999 FEW010 25/24 Q1010
cycle: 0

Station Type Date Time Source
WMKJ TAF 2020/09/22 18:12 UTC NOAA

TAF TAF WMKJ 221700Z 2218/2318 VRB02KT 9999 FEW010
BECMG 2301/2303 19005KT FEW018 PROB30
TEMPO 2306/2310 5000 TSRA FEW010 FEW017CB SCT020

Example: see airport list